sensor_id;sensor_type;location;lat;lon;timestamp;P1;durP1;ratioP1;P2;durP2;ratioP2
11767;SDS011;5941;57.652;12.514;2022-12-18T00:01:47;25.80;;;10.67;;
11767;SDS011;5941;57.652;12.514;2022-12-18T00:04:22;27.60;;;11.77;;
11767;SDS011;5941;57.652;12.514;2022-12-18T00:06:49;22.23;;;11.37;;
11767;SDS011;5941;57.652;12.514;2022-12-18T00:09:15;24.33;;;11.47;;
11767;SDS011;5941;57.652;12.514;2022-12-18T00:11:41;24.77;;;11.80;;
11767;SDS011;5941;57.652;12.514;2022-12-18T00:14:08;22.53;;;10.00;;
11767;SDS011;5941;57.652;12.514;2022-12-18T00:16:35;23.10;;;11.10;;
11767;SDS011;5941;57.652;12.514;2022-12-18T00:19:02;25.83;;;10.27;;
11767;SDS011;5941;57.652;12.514;2022-12-18T00:21:28;21.23;;;10.40;;
11767;SDS011;5941;57.652;12.514;2022-12-18T00:23:54;21.17;;;10.10;;
11767;SDS011;5941;57.652;12.514;2022-12-18T00:26:24;23.93;;;10.27;;
11767;SDS011;5941;57.652;12.514;2022-12-18T00:28:51;21.97;;;10.03;;
11767;SDS011;5941;57.652;12.514;2022-12-18T00:31:18;21.50;;;10.23;;
11767;SDS011;5941;57.652;12.514;2022-12-18T00:33:44;23.63;;;10.47;;
11767;SDS011;5941;57.652;12.514;2022-12-18T00:36:11;27.13;;;11.33;;
11767;SDS011;5941;57.652;12.514;2022-12-18T00:38:38;24.63;;;11.57;;
11767;SDS011;5941;57.652;12.514;2022-12-18T00:41:04;23.43;;;11.10;;
11767;SDS011;5941;57.652;12.514;2022-12-18T00:43:33;25.30;;;11.93;;
11767;SDS011;5941;57.652;12.514;2022-12-18T00:45:59;26.57;;;12.80;;
11767;SDS011;5941;57.652;12.514;2022-12-18T00:48:25;28.90;;;11.63;;
11767;SDS011;5941;57.652;12.514;2022-12-18T00:50:51;30.07;;;11.90;;
11767;SDS011;5941;57.652;12.514;2022-12-18T00:53:17;28.60;;;11.90;;
11767;SDS011;5941;57.652;12.514;2022-12-18T00:55:43;29.77;;;13.07;;
11767;SDS011;5941;57.652;12.514;2022-12-18T00:58:10;27.80;;;11.87;;
11767;SDS011;5941;57.652;12.514;2022-12-18T01:00:36;24.67;;;11.43;;
11767;SDS011;5941;57.652;12.514;2022-12-18T01:03:02;28.73;;;12.20;;
11767;SDS011;5941;57.652;12.514;2022-12-18T01:05:28;26.90;;;11.50;;
11767;SDS011;5941;57.652;12.514;2022-12-18T01:07:55;23.47;;;11.63;;
11767;SDS011;5941;57.652;12.514;2022-12-18T01:10:21;26.43;;;11.50;;
11767;SDS011;5941;57.652;12.514;2022-12-18T01:12:48;27.00;;;11.60;;
11767;SDS011;5941;57.652;12.514;2022-12-18T01:15:14;20.63;;;10.47;;
11767;SDS011;5941;57.652;12.514;2022-12-18T01:17:40;22.77;;;11.20;;
11767;SDS011;5941;57.652;12.514;2022-12-18T01:20:07;21.43;;;10.93;;
11767;SDS011;5941;57.652;12.514;2022-12-18T01:22:33;22.67;;;10.77;;
11767;SDS011;5941;57.652;12.514;2022-12-18T01:24:59;19.63;;;10.30;;
11767;SDS011;5941;57.652;12.514;2022-12-18T01:27:25;21.33;;;10.53;;
11767;SDS011;5941;57.652;12.514;2022-12-18T01:29:51;24.03;;;10.80;;
11767;SDS011;5941;57.652;12.514;2022-12-18T01:32:17;18.50;;;10.03;;
11767;SDS011;5941;57.652;12.514;2022-12-18T01:34:43;20.43;;;10.33;;
11767;SDS011;5941;57.652;12.514;2022-12-18T01:37:09;19.87;;;10.73;;
11767;SDS011;5941;57.652;12.514;2022-12-18T01:39:35;24.27;;;10.43;;
11767;SDS011;5941;57.652;12.514;2022-12-18T01:42:05;21.73;;;9.77;;
11767;SDS011;5941;57.652;12.514;2022-12-18T01:47:24;21.33;;;9.93;;
11767;SDS011;5941;57.652;12.514;2022-12-18T01:49:50;20.70;;;10.67;;
11767;SDS011;5941;57.652;12.514;2022-12-18T01:52:17;18.27;;;8.90;;
11767;SDS011;5941;57.652;12.514;2022-12-18T01:54:43;19.43;;;9.93;;
11767;SDS011;5941;57.652;12.514;2022-12-18T01:57:09;21.83;;;10.20;;
11767;SDS011;5941;57.652;12.514;2022-12-18T01:59:35;23.37;;;10.60;;
11767;SDS011;5941;57.652;12.514;2022-12-18T02:02:02;20.70;;;10.10;;
11767;SDS011;5941;57.652;12.514;2022-12-18T02:04:29;23.53;;;10.60;;
11767;SDS011;5941;57.652;12.514;2022-12-18T02:06:57;19.80;;;10.40;;
11767;SDS011;5941;57.652;12.514;2022-12-18T02:09:31;18.83;;;10.43;;
11767;SDS011;5941;57.652;12.514;2022-12-18T02:12:05;18.70;;;9.57;;
11767;SDS011;5941;57.652;12.514;2022-12-18T02:14:38;15.90;;;8.90;;
11767;SDS011;5941;57.652;12.514;2022-12-18T02:20:28;14.43;;;8.33;;
11767;SDS011;5941;57.652;12.514;2022-12-18T02:22:46;15.00;;;7.83;;
11767;SDS011;5941;57.652;12.514;2022-12-18T02:27:53;12.33;;;7.10;;
11767;SDS011;5941;57.652;12.514;2022-12-18T02:30:20;12.07;;;6.67;;
11767;SDS011;5941;57.652;12.514;2022-12-18T02:32:47;11.47;;;6.93;;
11767;SDS011;5941;57.652;12.514;2022-12-18T02:35:16;10.43;;;6.10;;
11767;SDS011;5941;57.652;12.514;2022-12-18T02:37:44;11.50;;;5.80;;
11767;SDS011;5941;57.652;12.514;2022-12-18T02:40:11;8.97;;;5.23;;
11767;SDS011;5941;57.652;12.514;2022-12-18T02:42:39;8.47;;;5.00;;
11767;SDS011;5941;57.652;12.514;2022-12-18T02:45:05;8.67;;;5.20;;
11767;SDS011;5941;57.652;12.514;2022-12-18T02:47:32;7.93;;;4.80;;
11767;SDS011;5941;57.652;12.514;2022-12-18T02:58:05;6.17;;;4.37;;
11767;SDS011;5941;57.652;12.514;2022-12-18T03:03:21;6.37;;;4.53;;
11767;SDS011;5941;57.652;12.514;2022-12-18T03:08:18;6.67;;;4.17;;
11767;SDS011;5941;57.652;12.514;2022-12-18T03:10:49;7.03;;;4.60;;
11767;SDS011;5941;57.652;12.514;2022-12-18T03:14:01;7.33;;;4.60;;
11767;SDS011;5941;57.652;12.514;2022-12-18T03:16:03;6.43;;;4.17;;
11767;SDS011;5941;57.652;12.514;2022-12-18T03:19:14;7.27;;;4.83;;
11767;SDS011;5941;57.652;12.514;2022-12-18T03:21:21;8.10;;;5.20;;
11767;SDS011;5941;57.652;12.514;2022-12-18T03:23:49;7.70;;;4.80;;
11767;SDS011;5941;57.652;12.514;2022-12-18T03:26:18;9.77;;;5.53;;
11767;SDS011;5941;57.652;12.514;2022-12-18T03:28:51;10.30;;;6.47;;
11767;SDS011;5941;57.652;12.514;2022-12-18T03:31:19;12.43;;;7.07;;
11767;SDS011;5941;57.652;12.514;2022-12-18T03:33:53;12.40;;;7.70;;
11767;SDS011;5941;57.652;12.514;2022-12-18T03:36:19;13.93;;;8.53;;
11767;SDS011;5941;57.652;12.514;2022-12-18T03:38:45;18.67;;;9.07;;
11767;SDS011;5941;57.652;12.514;2022-12-18T03:46:27;18.57;;;10.33;;
11767;SDS011;5941;57.652;12.514;2022-12-18T03:49:01;17.47;;;10.20;;
11767;SDS011;5941;57.652;12.514;2022-12-18T03:56:23;20.97;;;11.17;;
11767;SDS011;5941;57.652;12.514;2022-12-18T03:58:51;19.73;;;10.17;;
11767;SDS011;5941;57.652;12.514;2022-12-18T04:01:18;19.10;;;11.33;;
11767;SDS011;5941;57.652;12.514;2022-12-18T04:03:46;23.77;;;11.27;;
11767;SDS011;5941;57.652;12.514;2022-12-18T04:06:14;21.30;;;11.80;;
11767;SDS011;5941;57.652;12.514;2022-12-18T04:08:40;25.17;;;12.13;;
11767;SDS011;5941;57.652;12.514;2022-12-18T04:11:06;24.63;;;12.33;;
11767;SDS011;5941;57.652;12.514;2022-12-18T04:13:34;26.17;;;11.23;;
11767;SDS011;5941;57.652;12.514;2022-12-18T04:16:00;31.83;;;13.27;;
11767;SDS011;5941;57.652;12.514;2022-12-18T04:18:26;25.90;;;12.07;;
11767;SDS011;5941;57.652;12.514;2022-12-18T04:20:52;23.20;;;12.10;;
11767;SDS011;5941;57.652;12.514;2022-12-18T04:23:18;27.03;;;13.20;;
11767;SDS011;5941;57.652;12.514;2022-12-18T04:25:45;28.87;;;12.93;;
11767;SDS011;5941;57.652;12.514;2022-12-18T04:28:11;30.77;;;13.47;;
11767;SDS011;5941;57.652;12.514;2022-12-18T04:30:37;31.20;;;13.60;;
11767;SDS011;5941;57.652;12.514;2022-12-18T04:33:03;30.20;;;13.77;;
11767;SDS011;5941;57.652;12.514;2022-12-18T04:35:29;28.17;;;13.80;;
11767;SDS011;5941;57.652;12.514;2022-12-18T04:37:55;33.50;;;13.37;;
11767;SDS011;5941;57.652;12.514;2022-12-18T04:40:22;27.63;;;13.30;;
11767;SDS011;5941;57.652;12.514;2022-12-18T04:42:48;34.00;;;14.50;;
11767;SDS011;5941;57.652;12.514;2022-12-18T04:45:14;31.97;;;13.87;;
11767;SDS011;5941;57.652;12.514;2022-12-18T04:47:40;31.37;;;13.17;;
11767;SDS011;5941;57.652;12.514;2022-12-18T04:50:06;26.73;;;12.73;;
11767;SDS011;5941;57.652;12.514;2022-12-18T04:52:32;29.53;;;12.60;;
11767;SDS011;5941;57.652;12.514;2022-12-18T04:54:58;31.67;;;14.13;;
11767;SDS011;5941;57.652;12.514;2022-12-18T04:57:24;30.53;;;14.40;;
11767;SDS011;5941;57.652;12.514;2022-12-18T04:59:51;30.77;;;12.83;;
11767;SDS011;5941;57.652;12.514;2022-12-18T05:02:17;27.77;;;13.53;;
11767;SDS011;5941;57.652;12.514;2022-12-18T05:04:42;30.77;;;12.20;;
11767;SDS011;5941;57.652;12.514;2022-12-18T05:07:08;26.47;;;11.50;;
11767;SDS011;5941;57.652;12.514;2022-12-18T05:09:34;23.17;;;11.57;;
11767;SDS011;5941;57.652;12.514;2022-12-18T05:12:00;27.90;;;11.43;;
11767;SDS011;5941;57.652;12.514;2022-12-18T05:14:26;26.50;;;10.70;;
11767;SDS011;5941;57.652;12.514;2022-12-18T05:16:54;22.60;;;10.17;;
11767;SDS011;5941;57.652;12.514;2022-12-18T05:19:20;20.93;;;8.67;;
11767;SDS011;5941;57.652;12.514;2022-12-18T05:21:46;26.67;;;10.50;;
11767;SDS011;5941;57.652;12.514;2022-12-18T05:24:12;20.97;;;9.50;;
11767;SDS011;5941;57.652;12.514;2022-12-18T05:26:38;17.57;;;8.67;;
11767;SDS011;5941;57.652;12.514;2022-12-18T05:29:04;22.90;;;9.13;;
11767;SDS011;5941;57.652;12.514;2022-12-18T05:31:30;16.23;;;7.17;;
11767;SDS011;5941;57.652;12.514;2022-12-18T05:33:56;20.97;;;8.37;;
11767;SDS011;5941;57.652;12.514;2022-12-18T05:36:22;21.13;;;9.27;;
11767;SDS011;5941;57.652;12.514;2022-12-18T05:38:48;13.90;;;6.90;;
11767;SDS011;5941;57.652;12.514;2022-12-18T05:41:13;17.87;;;7.90;;
11767;SDS011;5941;57.652;12.514;2022-12-18T05:43:40;18.70;;;7.60;;
11767;SDS011;5941;57.652;12.514;2022-12-18T05:46:06;20.73;;;7.80;;
11767;SDS011;5941;57.652;12.514;2022-12-18T05:48:33;18.20;;;7.63;;
11767;SDS011;5941;57.652;12.514;2022-12-18T05:51:06;19.53;;;8.60;;
11767;SDS011;5941;57.652;12.514;2022-12-18T05:53:32;14.10;;;7.23;;
11767;SDS011;5941;57.652;12.514;2022-12-18T05:55:59;14.93;;;6.97;;
11767;SDS011;5941;57.652;12.514;2022-12-18T05:58:25;15.37;;;6.43;;
11767;SDS011;5941;57.652;12.514;2022-12-18T06:00:51;18.97;;;5.80;;
11767;SDS011;5941;57.652;12.514;2022-12-18T06:03:17;16.90;;;6.27;;
11767;SDS011;5941;57.652;12.514;2022-12-18T06:05:44;13.57;;;5.63;;
11767;SDS011;5941;57.652;12.514;2022-12-18T06:08:11;13.27;;;4.97;;
11767;SDS011;5941;57.652;12.514;2022-12-18T06:10:37;10.20;;;5.63;;
11767;SDS011;5941;57.652;12.514;2022-12-18T06:13:03;12.37;;;5.33;;
11767;SDS011;5941;57.652;12.514;2022-12-18T06:15:29;10.77;;;5.17;;
11767;SDS011;5941;57.652;12.514;2022-12-18T06:17:55;12.73;;;5.40;;
11767;SDS011;5941;57.652;12.514;2022-12-18T06:20:21;13.17;;;5.60;;
11767;SDS011;5941;57.652;12.514;2022-12-18T06:22:48;13.17;;;5.70;;
11767;SDS011;5941;57.652;12.514;2022-12-18T06:25:14;13.53;;;6.07;;
11767;SDS011;5941;57.652;12.514;2022-12-18T06:27:40;17.03;;;6.57;;
11767;SDS011;5941;57.652;12.514;2022-12-18T06:30:06;16.70;;;6.57;;
11767;SDS011;5941;57.652;12.514;2022-12-18T06:32:32;15.30;;;6.60;;
11767;SDS011;5941;57.652;12.514;2022-12-18T06:34:58;22.47;;;7.63;;
11767;SDS011;5941;57.652;12.514;2022-12-18T06:37:24;22.87;;;7.57;;
11767;SDS011;5941;57.652;12.514;2022-12-18T06:39:51;19.90;;;6.47;;
11767;SDS011;5941;57.652;12.514;2022-12-18T06:42:17;20.47;;;7.07;;
11767;SDS011;5941;57.652;12.514;2022-12-18T06:44:43;15.83;;;7.10;;
11767;SDS011;5941;57.652;12.514;2022-12-18T06:47:09;19.10;;;6.70;;
11767;SDS011;5941;57.652;12.514;2022-12-18T06:49:35;16.67;;;6.37;;
11767;SDS011;5941;57.652;12.514;2022-12-18T06:52:01;23.23;;;7.10;;
11767;SDS011;5941;57.652;12.514;2022-12-18T06:54:27;18.90;;;6.47;;
11767;SDS011;5941;57.652;12.514;2022-12-18T06:56:53;19.27;;;6.40;;
11767;SDS011;5941;57.652;12.514;2022-12-18T06:59:19;19.60;;;7.00;;
11767;SDS011;5941;57.652;12.514;2022-12-18T07:01:45;15.10;;;7.13;;
11767;SDS011;5941;57.652;12.514;2022-12-18T07:04:11;19.83;;;6.13;;
11767;SDS011;5941;57.652;12.514;2022-12-18T07:06:37;16.70;;;6.60;;
11767;SDS011;5941;57.652;12.514;2022-12-18T07:09:03;20.43;;;6.30;;
11767;SDS011;5941;57.652;12.514;2022-12-18T07:11:29;19.00;;;6.10;;
11767;SDS011;5941;57.652;12.514;2022-12-18T07:13:55;19.80;;;6.17;;
11767;SDS011;5941;57.652;12.514;2022-12-18T07:16:21;17.87;;;6.63;;
11767;SDS011;5941;57.652;12.514;2022-12-18T07:18:47;18.87;;;6.73;;
11767;SDS011;5941;57.652;12.514;2022-12-18T07:21:14;18.63;;;6.50;;
11767;SDS011;5941;57.652;12.514;2022-12-18T07:23:40;19.27;;;6.43;;
11767;SDS011;5941;57.652;12.514;2022-12-18T07:26:08;15.97;;;6.83;;
11767;SDS011;5941;57.652;12.514;2022-12-18T07:28:34;16.83;;;6.80;;
11767;SDS011;5941;57.652;12.514;2022-12-18T07:31:05;13.53;;;6.13;;
11767;SDS011;5941;57.652;12.514;2022-12-18T07:33:31;12.53;;;6.27;;
11767;SDS011;5941;57.652;12.514;2022-12-18T07:35:58;18.63;;;7.47;;
11767;SDS011;5941;57.652;12.514;2022-12-18T07:38:24;17.00;;;6.53;;
11767;SDS011;5941;57.652;12.514;2022-12-18T07:40:50;15.27;;;5.90;;
11767;SDS011;5941;57.652;12.514;2022-12-18T07:43:16;14.70;;;6.03;;
11767;SDS011;5941;57.652;12.514;2022-12-18T07:45:42;17.10;;;5.53;;
11767;SDS011;5941;57.652;12.514;2022-12-18T07:48:09;14.53;;;6.07;;
11767;SDS011;5941;57.652;12.514;2022-12-18T07:50:35;12.07;;;5.20;;
11767;SDS011;5941;57.652;12.514;2022-12-18T07:53:00;22.53;;;7.00;;
11767;SDS011;5941;57.652;12.514;2022-12-18T07:55:28;16.83;;;6.27;;
11767;SDS011;5941;57.652;12.514;2022-12-18T07:57:55;12.60;;;5.80;;
11767;SDS011;5941;57.652;12.514;2022-12-18T08:00:21;12.37;;;5.40;;
11767;SDS011;5941;57.652;12.514;2022-12-18T08:02:47;10.10;;;4.93;;
11767;SDS011;5941;57.652;12.514;2022-12-18T08:05:13;12.07;;;5.27;;
11767;SDS011;5941;57.652;12.514;2022-12-18T08:07:39;12.10;;;4.83;;
11767;SDS011;5941;57.652;12.514;2022-12-18T08:10:05;10.47;;;5.40;;
11767;SDS011;5941;57.652;12.514;2022-12-18T08:12:32;12.63;;;5.03;;
11767;SDS011;5941;57.652;12.514;2022-12-18T08:14:58;11.87;;;5.43;;
11767;SDS011;5941;57.652;12.514;2022-12-18T08:17:24;14.90;;;5.20;;
11767;SDS011;5941;57.652;12.514;2022-12-18T08:19:49;14.07;;;5.80;;
11767;SDS011;5941;57.652;12.514;2022-12-18T08:22:15;14.73;;;5.47;;
11767;SDS011;5941;57.652;12.514;2022-12-18T08:24:42;12.37;;;5.43;;
11767;SDS011;5941;57.652;12.514;2022-12-18T08:27:08;12.40;;;5.47;;
11767;SDS011;5941;57.652;12.514;2022-12-18T08:29:33;13.53;;;5.30;;
11767;SDS011;5941;57.652;12.514;2022-12-18T08:31:59;14.43;;;5.23;;
11767;SDS011;5941;57.652;12.514;2022-12-18T08:34:25;17.00;;;5.70;;
11767;SDS011;5941;57.652;12.514;2022-12-18T08:36:51;12.97;;;6.00;;
11767;SDS011;5941;57.652;12.514;2022-12-18T08:39:17;14.37;;;5.77;;
11767;SDS011;5941;57.652;12.514;2022-12-18T08:41:43;14.77;;;6.37;;
11767;SDS011;5941;57.652;12.514;2022-12-18T08:44:29;13.33;;;6.03;;
11767;SDS011;5941;57.652;12.514;2022-12-18T08:47:07;13.60;;;5.87;;
11767;SDS011;5941;57.652;12.514;2022-12-18T08:49:34;19.03;;;7.13;;
11767;SDS011;5941;57.652;12.514;2022-12-18T08:52:00;17.43;;;6.90;;
11767;SDS011;5941;57.652;12.514;2022-12-18T08:54:27;16.23;;;6.70;;
11767;SDS011;5941;57.652;12.514;2022-12-18T08:56:53;16.20;;;7.23;;
11767;SDS011;5941;57.652;12.514;2022-12-18T08:59:19;19.87;;;7.00;;
11767;SDS011;5941;57.652;12.514;2022-12-18T09:01:45;16.43;;;7.13;;
11767;SDS011;5941;57.652;12.514;2022-12-18T09:04:12;17.37;;;6.60;;
11767;SDS011;5941;57.652;12.514;2022-12-18T09:06:39;20.77;;;7.30;;
11767;SDS011;5941;57.652;12.514;2022-12-18T09:09:05;15.97;;;6.90;;
11767;SDS011;5941;57.652;12.514;2022-12-18T09:11:31;14.47;;;6.63;;
11767;SDS011;5941;57.652;12.514;2022-12-18T09:13:58;17.63;;;6.97;;
11767;SDS011;5941;57.652;12.514;2022-12-18T09:16:25;16.57;;;6.60;;
11767;SDS011;5941;57.652;12.514;2022-12-18T09:18:52;15.00;;;6.30;;
11767;SDS011;5941;57.652;12.514;2022-12-18T09:21:24;15.57;;;6.50;;
11767;SDS011;5941;57.652;12.514;2022-12-18T09:23:50;17.27;;;6.77;;
11767;SDS011;5941;57.652;12.514;2022-12-18T09:26:16;20.30;;;6.83;;
11767;SDS011;5941;57.652;12.514;2022-12-18T09:28:42;13.97;;;6.40;;
11767;SDS011;5941;57.652;12.514;2022-12-18T09:31:10;15.23;;;6.97;;
11767;SDS011;5941;57.652;12.514;2022-12-18T09:33:36;20.00;;;6.73;;
11767;SDS011;5941;57.652;12.514;2022-12-18T09:36:03;10.63;;;5.53;;
11767;SDS011;5941;57.652;12.514;2022-12-18T09:38:29;17.40;;;6.23;;
11767;SDS011;5941;57.652;12.514;2022-12-18T09:40:57;16.03;;;6.23;;
11767;SDS011;5941;57.652;12.514;2022-12-18T09:43:34;14.57;;;5.93;;
11767;SDS011;5941;57.652;12.514;2022-12-18T09:46:02;14.33;;;5.63;;
11767;SDS011;5941;57.652;12.514;2022-12-18T09:48:36;16.33;;;5.40;;
11767;SDS011;5941;57.652;12.514;2022-12-18T09:51:08;10.97;;;4.60;;
11767;SDS011;5941;57.652;12.514;2022-12-18T09:53:37;11.93;;;4.93;;
11767;SDS011;5941;57.652;12.514;2022-12-18T09:56:03;12.57;;;5.13;;
11767;SDS011;5941;57.652;12.514;2022-12-18T09:58:31;10.90;;;5.00;;
11767;SDS011;5941;57.652;12.514;2022-12-18T10:00:58;13.23;;;4.97;;
11767;SDS011;5941;57.652;12.514;2022-12-18T10:03:24;11.73;;;5.60;;
11767;SDS011;5941;57.652;12.514;2022-12-18T10:11:21;12.30;;;5.00;;
11767;SDS011;5941;57.652;12.514;2022-12-18T10:14:06;11.50;;;4.70;;
11767;SDS011;5941;57.652;12.514;2022-12-18T10:16:36;11.77;;;4.87;;
11767;SDS011;5941;57.652;12.514;2022-12-18T10:21:37;13.50;;;4.93;;
11767;SDS011;5941;57.652;12.514;2022-12-18T10:26:31;11.63;;;4.57;;
11767;SDS011;5941;57.652;12.514;2022-12-18T10:28:57;8.03;;;4.00;;
11767;SDS011;5941;57.652;12.514;2022-12-18T10:31:24;8.27;;;4.30;;
11767;SDS011;5941;57.652;12.514;2022-12-18T10:33:50;8.87;;;3.90;;
11767;SDS011;5941;57.652;12.514;2022-12-18T10:36:16;12.90;;;4.33;;
11767;SDS011;5941;57.652;12.514;2022-12-18T10:38:42;11.30;;;4.10;;
11767;SDS011;5941;57.652;12.514;2022-12-18T10:43:44;12.37;;;4.40;;
11767;SDS011;5941;57.652;12.514;2022-12-18T10:48:57;7.60;;;3.70;;
11767;SDS011;5941;57.652;12.514;2022-12-18T10:51:35;9.93;;;3.93;;
11767;SDS011;5941;57.652;12.514;2022-12-18T10:56:29;11.37;;;4.10;;
11767;SDS011;5941;57.652;12.514;2022-12-18T10:58:57;14.20;;;4.30;;
11767;SDS011;5941;57.652;12.514;2022-12-18T11:01:23;10.00;;;3.90;;
11767;SDS011;5941;57.652;12.514;2022-12-18T11:06:16;8.27;;;3.70;;
11767;SDS011;5941;57.652;12.514;2022-12-18T11:08:43;12.57;;;4.30;;
11767;SDS011;5941;57.652;12.514;2022-12-18T11:11:22;11.63;;;3.70;;
11767;SDS011;5941;57.652;12.514;2022-12-18T11:14:42;10.23;;;4.33;;
11767;SDS011;5941;57.652;12.514;2022-12-18T11:16:47;7.23;;;3.50;;
11767;SDS011;5941;57.652;12.514;2022-12-18T11:22:23;12.47;;;4.33;;
11767;SDS011;5941;57.652;12.514;2022-12-18T11:24:55;9.27;;;3.80;;
11767;SDS011;5941;57.652;12.514;2022-12-18T11:27:22;14.50;;;4.50;;
11767;SDS011;5941;57.652;12.514;2022-12-18T11:29:49;10.80;;;3.50;;
11767;SDS011;5941;57.652;12.514;2022-12-18T11:35:09;9.53;;;4.10;;
11767;SDS011;5941;57.652;12.514;2022-12-18T11:37:36;11.53;;;3.60;;
11767;SDS011;5941;57.652;12.514;2022-12-18T11:40:06;10.03;;;4.10;;
11767;SDS011;5941;57.652;12.514;2022-12-18T11:50:17;9.27;;;3.60;;
11767;SDS011;5941;57.652;12.514;2022-12-18T11:52:44;16.47;;;4.10;;
11767;SDS011;5941;57.652;12.514;2022-12-18T12:00:13;12.30;;;3.87;;
11767;SDS011;5941;57.652;12.514;2022-12-18T12:03:00;10.27;;;3.80;;
11767;SDS011;5941;57.652;12.514;2022-12-18T12:13:29;8.83;;;3.40;;
11767;SDS011;5941;57.652;12.514;2022-12-18T12:21:06;6.73;;;3.47;;
11767;SDS011;5941;57.652;12.514;2022-12-18T12:26:04;6.50;;;2.90;;
11767;SDS011;5941;57.652;12.514;2022-12-18T12:31:29;12.47;;;3.60;;
11767;SDS011;5941;57.652;12.514;2022-12-18T12:39:18;12.03;;;3.50;;
11767;SDS011;5941;57.652;12.514;2022-12-18T12:41:45;8.47;;;3.17;;
11767;SDS011;5941;57.652;12.514;2022-12-18T12:44:32;6.87;;;3.20;;
11767;SDS011;5941;57.652;12.514;2022-12-18T12:47:00;10.53;;;3.33;;
11767;SDS011;5941;57.652;12.514;2022-12-18T12:49:28;8.43;;;3.60;;
11767;SDS011;5941;57.652;12.514;2022-12-18T12:51:58;8.17;;;3.30;;
11767;SDS011;5941;57.652;12.514;2022-12-18T12:54:25;9.47;;;3.30;;
11767;SDS011;5941;57.652;12.514;2022-12-18T12:57:04;8.07;;;2.97;;
11767;SDS011;5941;57.652;12.514;2022-12-18T13:00:16;9.40;;;3.40;;
11767;SDS011;5941;57.652;12.514;2022-12-18T13:02:29;8.87;;;3.37;;
11767;SDS011;5941;57.652;12.514;2022-12-18T13:04:58;10.13;;;3.73;;
11767;SDS011;5941;57.652;12.514;2022-12-18T13:07:28;11.77;;;3.47;;
11767;SDS011;5941;57.652;12.514;2022-12-18T13:12:58;11.90;;;3.53;;
11767;SDS011;5941;57.652;12.514;2022-12-18T13:15:37;9.20;;;3.27;;
11767;SDS011;5941;57.652;12.514;2022-12-18T13:20:46;5.67;;;2.53;;
11767;SDS011;5941;57.652;12.514;2022-12-18T13:25:51;7.20;;;3.00;;
11767;SDS011;5941;57.652;12.514;2022-12-18T13:31:00;9.40;;;3.03;;
11767;SDS011;5941;57.652;12.514;2022-12-18T13:35:53;8.60;;;2.90;;
11767;SDS011;5941;57.652;12.514;2022-12-18T13:40:55;5.60;;;2.83;;
11767;SDS011;5941;57.652;12.514;2022-12-18T13:48:22;8.30;;;3.20;;
11767;SDS011;5941;57.652;12.514;2022-12-18T13:50:57;8.23;;;2.80;;
11767;SDS011;5941;57.652;12.514;2022-12-18T13:53:27;8.70;;;2.90;;
11767;SDS011;5941;57.652;12.514;2022-12-18T13:55:55;5.77;;;2.67;;
11767;SDS011;5941;57.652;12.514;2022-12-18T13:58:21;11.20;;;3.20;;
11767;SDS011;5941;57.652;12.514;2022-12-18T14:00:47;6.93;;;2.63;;
11767;SDS011;5941;57.652;12.514;2022-12-18T14:03:23;8.23;;;2.87;;
11767;SDS011;5941;57.652;12.514;2022-12-18T14:06:05;11.47;;;3.13;;
11767;SDS011;5941;57.652;12.514;2022-12-18T14:08:33;9.50;;;3.20;;
11767;SDS011;5941;57.652;12.514;2022-12-18T14:10:59;8.30;;;3.03;;
11767;SDS011;5941;57.652;12.514;2022-12-18T14:13:30;6.37;;;3.03;;
11767;SDS011;5941;57.652;12.514;2022-12-18T14:16:00;6.43;;;2.83;;
11767;SDS011;5941;57.652;12.514;2022-12-18T14:18:29;9.07;;;3.23;;
11767;SDS011;5941;57.652;12.514;2022-12-18T14:20:59;6.43;;;2.70;;
11767;SDS011;5941;57.652;12.514;2022-12-18T14:25:51;7.23;;;3.50;;
11767;SDS011;5941;57.652;12.514;2022-12-18T14:28:17;7.97;;;3.23;;
11767;SDS011;5941;57.652;12.514;2022-12-18T14:30:43;11.27;;;4.00;;
11767;SDS011;5941;57.652;12.514;2022-12-18T14:33:13;12.63;;;4.23;;
11767;SDS011;5941;57.652;12.514;2022-12-18T14:35:51;11.67;;;4.10;;
11767;SDS011;5941;57.652;12.514;2022-12-18T14:38:22;10.40;;;3.53;;
11767;SDS011;5941;57.652;12.514;2022-12-18T14:41:05;14.30;;;4.27;;
11767;SDS011;5941;57.652;12.514;2022-12-18T14:43:32;10.80;;;5.00;;
11767;SDS011;5941;57.652;12.514;2022-12-18T14:45:59;17.40;;;5.60;;
11767;SDS011;5941;57.652;12.514;2022-12-18T14:48:39;13.53;;;5.07;;
11767;SDS011;5941;57.652;12.514;2022-12-18T14:51:15;16.47;;;6.17;;
11767;SDS011;5941;57.652;12.514;2022-12-18T14:53:57;13.83;;;6.60;;
11767;SDS011;5941;57.652;12.514;2022-12-18T14:56:26;21.17;;;7.60;;
11767;SDS011;5941;57.652;12.514;2022-12-18T14:59:06;17.73;;;7.67;;
11767;SDS011;5941;57.652;12.514;2022-12-18T15:01:38;17.67;;;7.00;;
11767;SDS011;5941;57.652;12.514;2022-12-18T15:04:05;24.00;;;8.60;;
11767;SDS011;5941;57.652;12.514;2022-12-18T15:06:46;21.17;;;8.80;;
11767;SDS011;5941;57.652;12.514;2022-12-18T15:09:23;20.20;;;8.50;;
11767;SDS011;5941;57.652;12.514;2022-12-18T15:11:49;24.63;;;9.77;;
11767;SDS011;5941;57.652;12.514;2022-12-18T15:16:57;24.77;;;9.87;;
11767;SDS011;5941;57.652;12.514;2022-12-18T15:19:32;28.93;;;10.63;;
11767;SDS011;5941;57.652;12.514;2022-12-18T15:21:59;31.53;;;11.00;;
11767;SDS011;5941;57.652;12.514;2022-12-18T15:24:26;29.83;;;11.13;;
11767;SDS011;5941;57.652;12.514;2022-12-18T15:26:53;30.80;;;11.77;;
11767;SDS011;5941;57.652;12.514;2022-12-18T15:29:22;29.90;;;12.40;;
11767;SDS011;5941;57.652;12.514;2022-12-18T15:32:10;27.33;;;12.33;;
11767;SDS011;5941;57.652;12.514;2022-12-18T15:34:43;28.63;;;11.97;;
11767;SDS011;5941;57.652;12.514;2022-12-18T15:37:09;33.70;;;12.57;;
11767;SDS011;5941;57.652;12.514;2022-12-18T15:39:35;43.33;;;14.30;;
11767;SDS011;5941;57.652;12.514;2022-12-18T15:42:01;35.50;;;13.10;;
11767;SDS011;5941;57.652;12.514;2022-12-18T15:44:46;34.03;;;13.10;;
11767;SDS011;5941;57.652;12.514;2022-12-18T15:47:13;36.97;;;14.20;;
11767;SDS011;5941;57.652;12.514;2022-12-18T15:49:39;38.40;;;15.30;;
11767;SDS011;5941;57.652;12.514;2022-12-18T15:52:05;36.93;;;14.40;;
11767;SDS011;5941;57.652;12.514;2022-12-18T15:54:31;43.10;;;15.33;;
11767;SDS011;5941;57.652;12.514;2022-12-18T15:57:16;35.93;;;13.43;;
11767;SDS011;5941;57.652;12.514;2022-12-18T15:59:48;38.17;;;14.90;;
11767;SDS011;5941;57.652;12.514;2022-12-18T16:02:15;50.03;;;21.27;;
11767;SDS011;5941;57.652;12.514;2022-12-18T16:04:42;36.30;;;15.07;;
11767;SDS011;5941;57.652;12.514;2022-12-18T16:07:08;36.47;;;15.27;;
11767;SDS011;5941;57.652;12.514;2022-12-18T16:09:35;36.63;;;14.90;;
11767;SDS011;5941;57.652;12.514;2022-12-18T16:12:01;40.13;;;15.27;;
11767;SDS011;5941;57.652;12.514;2022-12-18T16:14:29;33.83;;;14.93;;
11767;SDS011;5941;57.652;12.514;2022-12-18T16:16:56;32.27;;;14.27;;
11767;SDS011;5941;57.652;12.514;2022-12-18T16:19:23;35.07;;;15.20;;
11767;SDS011;5941;57.652;12.514;2022-12-18T16:21:50;35.80;;;14.90;;
11767;SDS011;5941;57.652;12.514;2022-12-18T16:24:17;36.63;;;14.30;;
11767;SDS011;5941;57.652;12.514;2022-12-18T16:26:43;35.13;;;14.20;;
11767;SDS011;5941;57.652;12.514;2022-12-18T16:29:09;40.37;;;14.87;;
11767;SDS011;5941;57.652;12.514;2022-12-18T16:31:35;38.60;;;14.57;;
11767;SDS011;5941;57.652;12.514;2022-12-18T16:36:36;38.73;;;15.43;;
11767;SDS011;5941;57.652;12.514;2022-12-18T16:39:02;50.47;;;16.90;;
11767;SDS011;5941;57.652;12.514;2022-12-18T16:41:28;50.43;;;17.30;;
11767;SDS011;5941;57.652;12.514;2022-12-18T16:43:57;37.23;;;15.17;;